Ana Sayfa
METAR-TAF:

METAR-TAF

Havaalanları :

Macas, Ekvador

Enlem: 02-17-57-S, Boylam: 078-07-15-W, yükseklik: 1052 m

Güncel hava durumu gözlemi

Rapor saat 23:00 UTC de 11 saat ve 11 dakika önce yapıldı.
Rüzgar kuzey/kuzeydoğudan 5 kt
Sıcaklık 24°C
Nem 74%
Basınç 1013 hPa
Görüş mesafesi 10 km veya daha fazla
3000 ft yükseklikte az bulutlu
26000 ft yükseklikte parçalı bulutlu

METAR: SEMC 242300Z 02005KT 9999 FEW030 SCT260 24/19 Q1013 RMK A2993

Saat: 05:11 (10:11 UTC)


TAF: eksik

4.000'den fazla havaalanı için hava durumu gözlemleri ve tahminleri (METAR ve TAF raporları).

Kullanılabilir istasyonlar harita üzerinde sarı ve kırmızı noktalarla gösterilir.

İstasyonun adını görmek için fareyi noktanın üzerinde gezdirin.

Sonrasında hava gözlem ve tahminlerini görmek için tıklayın.

Haritayı değiştirmek için: yaklaştırmak için siyah artı işaretli yeşil düğmeye ve uzaklaştırmak için de eksi işaretli düğmeye hızla tıklayın; bitişik haritalar için yeşil okları kullanın.


METAR-TAF: